createdAt,value
2023-05-05T00:02:17.927Z,103346.44
2023-05-05T00:04:46.080Z,103349.78
2023-05-05T00:07:13.977Z,103354.88
2023-05-05T00:09:41.911Z,103351.44
2023-05-05T00:12:11.387Z,103356.59
2023-05-05T00:14:39.258Z,103354.03
2023-05-05T00:17:07.244Z,103360.88
2023-05-05T00:19:35.288Z,103352.31
2023-05-05T00:22:03.342Z,103357.41
2023-05-05T00:24:31.250Z,103358.22
2023-05-05T00:26:59.225Z,103356.41
2023-05-05T00:29:28.468Z,103355.47
2023-05-05T00:31:57.312Z,103365.84
2023-05-05T00:34:25.192Z,103355.56
2023-05-05T00:36:53.410Z,103353.84
2023-05-05T00:39:21.615Z,103364.13
2023-05-05T00:41:49.538Z,103362.38
2023-05-05T00:44:17.466Z,103351.16
2023-05-05T00:46:46.968Z,103358.78
2023-05-05T00:49:15.007Z,103364.69
2023-05-05T00:51:43.441Z,103357.81
2023-05-05T00:54:11.426Z,103361.25
2023-05-05T00:56:39.413Z,103361.28
2023-05-05T00:59:07.265Z,103352.72
2023-05-05T01:01:35.124Z,103358.69
2023-05-05T01:04:04.539Z,103358.63
2023-05-05T01:06:48.475Z,103352.59
2023-05-05T01:09:25.409Z,103352.56
2023-05-05T01:12:02.139Z,103359.34
2023-05-05T01:14:39.606Z,103360.16
2023-05-05T01:17:17.294Z,103353.31
2023-05-05T01:20:15.511Z,103353.28
2023-05-05T01:22:47.823Z,103357.53
2023-05-05T01:25:46.995Z,103354.03
2023-05-05T01:28:29.315Z,103354.88
2023-05-05T01:31:29.060Z,103364.38
2023-05-05T01:34:05.446Z,103358.28
2023-05-05T01:36:37.525Z,103363.34
2023-05-05T01:39:09.553Z,103365.13
2023-05-05T01:41:42.251Z,103361.78
2023-05-05T01:44:12.614Z,103363.50
2023-05-05T01:46:40.584Z,103360.06
2023-05-05T01:49:12.204Z,103368.63
2023-05-05T01:51:41.757Z,103352.22
2023-05-05T01:54:10.613Z,103369.44
2023-05-05T01:56:41.096Z,103364.38
2023-05-05T01:59:10.548Z,103360.94
2023-05-05T02:01:44.695Z,103357.56
2023-05-05T02:04:16.101Z,103359.28
2023-05-05T02:06:45.450Z,103354.97
2023-05-05T02:09:15.423Z,103354.06
2023-05-05T02:11:43.464Z,103361.72
2023-05-05T02:14:13.292Z,103354.84
2023-05-05T02:16:43.481Z,103353.13
2023-05-05T02:19:12.323Z,103351.38
2023-05-05T02:21:42.280Z,103353.97
2023-05-05T02:24:10.289Z,103359.09
2023-05-05T02:26:41.233Z,103353.97
2023-05-05T02:29:12.043Z,103354.72
2023-05-05T02:31:45.371Z,103350.41
2023-05-05T02:34:17.462Z,103348.72
2023-05-05T02:36:48.970Z,103351.31
2023-05-05T02:39:26.161Z,103350.41
2023-05-05T02:41:57.129Z,103354.66
2023-05-05T02:44:27.148Z,103360.63
2023-05-05T02:46:54.941Z,103357.09
2023-05-05T02:49:22.954Z,103352.75
2023-05-05T02:51:52.520Z,103359.59
2023-05-05T02:54:20.719Z,103354.47
2023-05-05T02:56:51.023Z,103353.56
2023-05-05T02:59:27.335Z,103361.25
2023-05-05T03:02:07.926Z,103361.91
2023-05-05T03:04:40.609Z,103357.66
2023-05-05T03:07:14.377Z,103358.50
2023-05-05T03:09:47.889Z,103351.66
2023-05-05T03:12:21.735Z,103362.00
2023-05-05T03:14:53.323Z,103354.34
2023-05-05T03:17:23.435Z,103367.19
2023-05-05T03:19:52.329Z,103368.03
2023-05-05T03:22:21.704Z,103358.66
2023-05-05T03:24:51.506Z,103358.72
2023-05-05T03:27:20.482Z,103361.34
2023-05-05T03:29:48.539Z,103365.66
2023-05-05T03:32:16.692Z,103358.72
2023-05-05T03:34:44.627Z,103358.78
2023-05-05T03:37:12.604Z,103361.38
2023-05-05T03:39:41.806Z,103365.66
2023-05-05T03:42:09.886Z,103366.56
2023-05-05T03:44:37.877Z,103369.19
2023-05-05T03:47:06.132Z,103373.56
2023-05-05T03:49:34.089Z,103372.13
2023-05-05T03:52:02.224Z,103378.22
2023-05-05T03:54:30.187Z,103378.41
2023-05-05T03:56:59.868Z,103380.25
2023-05-05T03:59:27.842Z,103383.03
2023-05-05T04:01:55.903Z,103384.44
2023-05-05T04:04:23.822Z,103386.91
2023-05-05T04:06:51.735Z,103380.69
2023-05-05T04:09:19.645Z,103384.16
2023-05-05T04:11:47.450Z,103387.50
2023-05-05T04:14:16.769Z,103391.81
2023-05-05T04:16:44.588Z,103389.31
2023-05-05T04:19:13.555Z,103385.91
2023-05-05T04:21:41.467Z,103383.34
2023-05-05T04:24:09.626Z,103388.97
2023-05-05T04:26:37.480Z,103393.94
2023-05-05T04:29:05.607Z,103394.91
2023-05-05T04:31:34.950Z,103399.31
2023-05-05T04:34:02.987Z,103392.44
2023-05-05T04:36:30.853Z,103397.06
2023-05-05T04:38:58.982Z,103395.97
2023-05-05T04:41:28.243Z,103401.28
2023-05-05T04:43:57.874Z,103401.44
2023-05-05T04:46:26.607Z,103404.13
2023-05-05T04:48:55.930Z,103398.22
2023-05-05T04:51:26.321Z,103403.44
2023-05-05T04:53:54.132Z,103400.19
2023-05-05T04:56:22.051Z,103397.75
2023-05-05T04:58:51.101Z,103403.88
2023-05-05T05:01:19.057Z,103401.56
2023-05-05T05:03:46.995Z,103410.63
2023-05-05T05:06:16.819Z,103415.94
2023-05-05T05:08:44.683Z,103412.66
2023-05-05T05:11:12.619Z,103410.19
2023-05-05T05:13:41.627Z,103417.97
2023-05-05T05:16:09.685Z,103414.56
2023-05-05T05:18:37.541Z,103419.72
2023-05-05T05:21:05.607Z,103424.00
2023-05-05T05:23:34.906Z,103418.00
2023-05-05T05:26:02.854Z,103411.16
2023-05-05T05:28:30.793Z,103418.94
2023-05-05T05:30:59.020Z,103422.38
2023-05-05T05:33:27.043Z,103421.56
2023-05-05T05:35:54.854Z,103422.41
2023-05-05T05:38:22.799Z,103418.97
2023-05-05T05:40:52.059Z,103415.47
2023-05-05T05:43:19.979Z,103416.31
2023-05-05T05:45:47.963Z,103421.47
2023-05-05T05:48:15.826Z,103411.94
2023-05-05T05:50:43.728Z,103422.28
2023-05-05T05:53:11.678Z,103420.50
2023-05-05T05:55:39.558Z,103422.97
2023-05-05T05:58:08.797Z,103421.13
2023-05-05T06:00:36.692Z,103421.03
2023-05-05T06:03:04.726Z,103413.91
2023-05-05T06:05:32.617Z,103418.13
2023-05-05T06:08:00.468Z,103411.91
2023-05-05T06:10:28.682Z,103407.31
2023-05-05T06:12:56.803Z,103417.47
2023-05-05T06:15:26.495Z,103408.44
2023-05-05T06:17:54.621Z,103407.84
2023-05-05T06:20:22.567Z,103403.22
2023-05-05T06:22:50.530Z,103404.31
2023-05-05T06:25:18.618Z,103410.97
2023-05-05T06:27:46.562Z,103407.41
2023-05-05T06:30:15.742Z,103406.88
2023-05-05T06:32:45.014Z,103409.81
2023-05-05T06:35:12.944Z,103411.28
2023-05-05T06:37:40.921Z,103409.06
2023-05-05T06:40:10.563Z,103413.94
2023-05-05T06:42:38.689Z,103409.19
2023-05-05T06:45:07.488Z,103417.94
2023-05-05T06:47:35.984Z,103406.03
2023-05-05T06:50:06.143Z,103407.97
2023-05-05T06:52:34.134Z,103408.16
2023-05-05T06:55:02.097Z,103408.03
2023-05-05T06:57:29.980Z,103408.56
2023-05-05T06:59:57.898Z,103411.13
2023-05-05T07:02:26.924Z,103401.69
2023-05-05T07:04:55.687Z,103407.47
2023-05-05T07:07:25.080Z,103410.50
2023-05-05T07:09:52.960Z,103412.06
2023-05-05T07:12:20.948Z,103406.66
2023-05-05T07:14:48.862Z,103409.63
2023-05-05T07:17:16.790Z,103409.91
2023-05-05T07:19:44.629Z,103413.03
2023-05-05T07:22:12.529Z,103411.66
2023-05-05T07:24:41.915Z,103406.31
2023-05-05T07:27:09.990Z,103401.91
2023-05-05T07:29:37.932Z,103413.97
2023-05-05T07:32:06.483Z,103407.13
2023-05-05T07:34:34.702Z,103407.44
2023-05-05T07:37:04.066Z,103398.72
2023-05-05T07:39:32.059Z,103402.03
2023-05-05T07:42:01.730Z,103396.75
2023-05-05T07:44:29.749Z,103404.47
2023-05-05T07:46:57.597Z,103402.94
2023-05-05T07:49:25.655Z,103401.09
2023-05-05T07:51:54.413Z,103406.91
2023-05-05T07:54:22.348Z,103403.22
2023-05-05T07:56:50.204Z,103403.19
2023-05-05T07:59:19.484Z,103404.31
2023-05-05T08:01:47.389Z,103395.94
2023-05-05T08:04:15.412Z,103398.59
2023-05-05T08:06:43.323Z,103392.53
2023-05-05T08:09:11.303Z,103402.72
2023-05-05T08:11:39.254Z,103399.97
2023-05-05T08:14:07.752Z,103402.66
2023-05-05T08:16:37.029Z,103403.00
2023-05-05T08:19:09.731Z,103402.16
2023-05-05T08:21:42.615Z,103400.31
2023-05-05T08:24:10.555Z,103399.44
2023-05-05T08:26:38.403Z,103399.97
2023-05-05T08:29:06.440Z,103398.25
2023-05-05T08:31:38.005Z,103398.41
2023-05-05T08:34:06.424Z,103398.38
2023-05-05T08:36:34.603Z,103392.63
2023-05-05T08:39:02.491Z,103391.44
2023-05-05T08:41:32.620Z,103386.50
2023-05-05T08:44:00.944Z,103390.31
2023-05-05T08:46:29.391Z,103393.56
2023-05-05T08:48:59.275Z,103385.91
2023-05-05T08:51:31.490Z,103386.69
2023-05-05T08:54:06.205Z,103391.75
2023-05-05T08:56:36.233Z,103404.91
2023-05-05T08:59:04.746Z,103392.91
2023-05-05T09:01:33.945Z,103391.19
2023-05-05T09:04:05.115Z,103392.50
2023-05-05T09:06:33.834Z,103388.34
2023-05-05T09:09:02.389Z,103393.81
2023-05-05T09:11:30.374Z,103391.09
2023-05-05T09:13:58.279Z,103392.38
2023-05-05T09:16:26.159Z,103389.03
2023-05-05T09:19:04.536Z,103381.75
2023-05-05T09:21:33.104Z,103390.69
2023-05-05T09:24:11.712Z,103389.31
2023-05-05T09:26:42.551Z,103381.00
2023-05-05T09:29:10.659Z,103383.25
2023-05-05T09:31:38.627Z,103384.22
2023-05-05T09:34:18.280Z,103373.22
2023-05-05T09:36:49.007Z,103379.13
2023-05-05T09:39:19.471Z,103379.19
2023-05-05T09:41:47.734Z,103381.00
2023-05-05T09:44:17.011Z,103379.44
2023-05-05T09:46:53.254Z,103379.28
2023-05-05T09:49:25.617Z,103372.16
2023-05-05T09:51:54.169Z,103373.06
2023-05-05T09:54:26.415Z,103381.88
2023-05-05T09:56:54.847Z,103376.72
2023-05-05T09:59:22.993Z,103368.66
2023-05-05T10:01:52.232Z,103374.44
2023-05-05T10:04:29.379Z,103375.09
2023-05-05T10:06:58.621Z,103368.25
2023-05-05T10:09:27.353Z,103372.03
2023-05-05T10:11:57.280Z,103366.94
2023-05-05T10:14:26.259Z,103367.00
2023-05-05T10:16:55.815Z,103365.28
2023-05-05T10:19:25.487Z,103364.34
2023-05-05T10:22:03.880Z,103360.78
2023-05-05T10:24:36.380Z,103357.00
2023-05-05T10:27:13.211Z,103354.13
2023-05-05T10:29:48.804Z,103354.97
2023-05-05T10:32:53.484Z,103350.38
2023-05-05T10:35:18.260Z,103355.88
2023-05-05T10:37:48.525Z,103350.84
2023-05-05T10:40:17.700Z,103338.09
2023-05-05T10:42:45.938Z,103340.50
2023-05-05T10:45:13.813Z,103334.13
2023-05-05T10:47:42.041Z,103341.34
2023-05-05T10:50:16.945Z,103337.50
2023-05-05T10:52:57.693Z,103339.81
2023-05-05T10:55:35.096Z,103339.97
2023-05-05T10:58:03.117Z,103338.59
2023-05-05T11:00:52.203Z,103343.19
2023-05-05T11:03:24.448Z,103339.59
2023-05-05T11:06:16.339Z,103332.13
2023-05-05T11:08:45.959Z,103326.97
2023-05-05T11:11:14.486Z,103321.38
2023-05-05T11:13:42.688Z,103322.91
2023-05-05T11:16:45.521Z,103324.72
2023-05-05T11:19:52.182Z,103323.97
2023-05-05T11:22:20.107Z,103330.34
2023-05-05T11:24:49.336Z,103333.28
2023-05-05T11:27:17.157Z,103328.13
2023-05-05T11:30:13.160Z,103329.34
2023-05-05T11:32:41.400Z,103334.72
2023-05-05T11:35:09.330Z,103333.16
2023-05-05T11:37:39.595Z,103333.19
2023-05-05T11:40:21.976Z,103331.13
2023-05-05T11:42:49.983Z,103323.44
2023-05-05T11:45:23.061Z,103314.75
2023-05-05T11:47:51.236Z,103320.69
2023-05-05T11:50:21.714Z,103321.59
2023-05-05T11:52:50.102Z,103312.84
2023-05-05T11:55:25.531Z,103322.50
2023-05-05T11:57:53.583Z,103320.97
2023-05-05T12:00:21.743Z,103319.16
2023-05-05T12:02:58.595Z,103314.63
2023-05-05T12:05:26.704Z,103313.97
2023-05-05T12:07:58.487Z,103303.97
2023-05-05T12:10:28.417Z,103307.44
2023-05-05T12:12:56.459Z,103305.34
2023-05-05T12:15:31.928Z,103300.06
2023-05-05T12:18:02.443Z,103298.97
2023-05-05T12:20:31.961Z,103295.13
2023-05-05T12:23:04.360Z,103297.72
2023-05-05T12:25:40.861Z,103304.28
2023-05-05T12:28:09.588Z,103294.53
2023-05-05T12:30:37.910Z,103291.59
2023-05-05T12:33:07.317Z,103293.47
2023-05-05T12:35:35.823Z,103293.03
2023-05-05T12:38:04.096Z,103297.41
2023-05-05T12:40:46.902Z,103290.94
2023-05-05T12:43:29.462Z,103297.47
2023-05-05T12:46:08.802Z,103293.28
2023-05-05T12:48:39.127Z,103295.53
2023-05-05T12:51:15.061Z,103292.22
2023-05-05T12:53:43.633Z,103293.19
2023-05-05T12:56:41.142Z,103288.38
2023-05-05T12:59:12.420Z,103282.81
2023-05-05T13:01:50.196Z,103287.16
2023-05-05T13:04:18.376Z,103287.13
2023-05-05T13:06:47.662Z,103279.16
2023-05-05T13:09:25.896Z,103281.72
2023-05-05T13:11:55.913Z,103274.31
2023-05-05T13:14:24.166Z,103267.75
2023-05-05T13:16:52.081Z,103269.09
2023-05-05T13:19:20.005Z,103260.09
2023-05-05T13:21:47.945Z,103258.59
2023-05-05T13:24:28.767Z,103263.78
2023-05-05T13:27:04.554Z,103266.88
2023-05-05T13:29:33.122Z,103271.59
2023-05-05T13:32:01.531Z,103264.94
2023-05-05T13:34:29.510Z,103268.91
2023-05-05T13:36:57.507Z,103278.44
2023-05-05T13:39:25.476Z,103262.91
2023-05-05T13:41:53.412Z,103265.75
2023-05-05T13:44:23.057Z,103268.72
2023-05-05T13:46:51.012Z,103266.97
2023-05-05T13:49:20.088Z,103261.72
2023-05-05T13:51:48.097Z,103265.66
2023-05-05T13:54:15.975Z,103266.94
2023-05-05T13:56:44.112Z,103264.56
2023-05-05T13:59:12.002Z,103256.38
2023-05-05T14:01:41.523Z,103257.22
2023-05-05T14:04:10.482Z,103255.97
2023-05-05T14:06:38.350Z,103249.53
2023-05-05T14:09:07.959Z,103252.06
2023-05-05T14:11:35.960Z,103239.28
2023-05-05T14:14:03.950Z,103235.72
2023-05-05T14:16:31.988Z,103249.00
2023-05-05T14:19:01.641Z,103244.78
2023-05-05T14:21:29.627Z,103239.84
2023-05-05T14:23:57.665Z,103247.03
2023-05-05T14:26:28.137Z,103248.53
2023-05-05T14:28:56.200Z,103250.81
2023-05-05T14:31:24.238Z,103246.84
2023-05-05T14:33:53.423Z,103248.44
2023-05-05T14:36:23.581Z,103249.78
2023-05-05T14:38:51.542Z,103243.34
2023-05-05T14:41:19.408Z,103248.31
2023-05-05T14:43:47.218Z,103240.41
2023-05-05T14:46:15.210Z,103243.09
2023-05-05T14:48:43.550Z,103236.19
2023-05-05T14:51:11.366Z,103244.78
2023-05-05T14:53:40.690Z,103242.41
2023-05-05T14:56:08.681Z,103236.53
2023-05-05T14:58:36.488Z,103239.38
2023-05-05T15:01:05.028Z,103237.44
2023-05-05T15:03:33.112Z,103243.13
2023-05-05T15:06:01.361Z,103248.69
2023-05-05T15:08:29.300Z,103250.13
2023-05-05T15:10:58.634Z,103257.50
2023-05-05T15:13:26.646Z,103256.50
2023-05-05T15:15:54.586Z,103251.25
2023-05-05T15:18:22.563Z,103249.75
2023-05-05T15:20:50.916Z,103253.59
2023-05-05T15:23:18.831Z,103256.25
2023-05-05T15:25:46.779Z,103254.41
2023-05-05T15:28:16.102Z,103252.66
2023-05-05T15:30:44.113Z,103251.06
2023-05-05T15:33:12.145Z,103247.66
2023-05-05T15:35:40.047Z,103244.22
2023-05-05T15:38:08.022Z,103248.59
2023-05-05T15:40:36.081Z,103252.09
2023-05-05T15:43:04.206Z,103248.53
2023-05-05T15:45:33.708Z,103258.06
2023-05-05T15:48:01.642Z,103245.28
2023-05-05T15:50:29.645Z,103244.31
2023-05-05T15:52:58.032Z,103249.66
2023-05-05T15:55:28.459Z,103246.81
2023-05-05T15:57:56.078Z,103247.47
2023-05-05T16:00:24.072Z,103244.34
2023-05-05T16:02:53.397Z,103250.84
2023-05-05T16:05:23.182Z,103249.09
2023-05-05T16:07:52.548Z,103247.94
2023-05-05T16:10:20.693Z,103244.50
2023-05-05T16:12:48.664Z,103246.06
2023-05-05T16:15:16.731Z,103241.75
2023-05-05T16:17:44.686Z,103242.47
2023-05-05T16:20:14.396Z,103243.50
2023-05-05T16:22:42.382Z,103241.88
2023-05-05T16:25:11.167Z,103248.34
2023-05-05T16:27:39.181Z,103246.03
2023-05-05T16:30:08.948Z,103248.13
2023-05-05T16:32:36.985Z,103256.75
2023-05-05T16:35:07.142Z,103246.41
2023-05-05T16:37:36.572Z,103249.47
2023-05-05T16:40:06.032Z,103251.59
2023-05-05T16:42:33.923Z,103254.34
2023-05-05T16:45:01.828Z,103254.97
2023-05-05T16:47:29.815Z,103253.53
2023-05-05T16:49:57.801Z,103257.75
2023-05-05T16:52:25.721Z,103255.38
2023-05-05T16:54:56.188Z,103250.97
2023-05-05T16:57:24.438Z,103259.84
2023-05-05T16:59:52.422Z,103255.59
2023-05-05T17:02:20.394Z,103256.50
2023-05-05T17:04:48.511Z,103248.63
2023-05-05T17:07:16.486Z,103248.75
2023-05-05T17:09:44.710Z,103247.84
2023-05-05T17:12:14.019Z,103254.84
2023-05-05T17:14:41.907Z,103246.28
2023-05-05T17:17:11.528Z,103258.66
2023-05-05T17:19:39.463Z,103251.84
2023-05-05T17:22:07.442Z,103262.47
2023-05-05T17:24:35.371Z,103262.63
2023-05-05T17:27:03.296Z,103263.59
2023-05-05T17:29:36.823Z,103253.25
2023-05-05T17:32:05.265Z,103254.19
2023-05-05T17:34:33.186Z,103260.38
2023-05-05T17:37:01.128Z,103263.69
2023-05-05T17:39:29.135Z,103260.19
2023-05-05T17:41:57.052Z,103254.44
2023-05-05T17:44:25.020Z,103263.56
2023-05-05T17:46:54.228Z,103261.22
2023-05-05T17:49:25.238Z,103265.66
2023-05-05T17:51:53.231Z,103268.44
2023-05-05T17:54:21.069Z,103265.97
2023-05-05T17:56:48.937Z,103268.75
2023-05-05T17:59:16.813Z,103265.38
2023-05-05T18:01:44.799Z,103269.91
2023-05-05T18:04:14.105Z,103263.09
2023-05-05T18:06:42.024Z,103273.66
2023-05-05T18:09:11.209Z,103271.16
2023-05-05T18:11:39.265Z,103276.56
2023-05-05T18:14:07.238Z,103277.59
2023-05-05T18:16:35.175Z,103282.06
2023-05-05T18:19:03.206Z,103287.38
2023-05-05T18:21:32.465Z,103277.16
2023-05-05T18:24:11.579Z,103277.31
2023-05-05T18:26:49.053Z,103281.03
2023-05-05T18:29:17.090Z,103291.56
2023-05-05T18:31:45.178Z,103289.94
2023-05-05T18:34:13.150Z,103291.75
2023-05-05T18:36:42.461Z,103291.03
2023-05-05T18:39:10.389Z,103300.72
2023-05-05T18:41:38.486Z,103293.00
2023-05-05T18:44:06.506Z,103295.75
2023-05-05T18:46:34.548Z,103296.69
2023-05-05T18:49:02.465Z,103302.03
2023-05-05T18:51:30.837Z,103300.34
2023-05-05T18:54:00.897Z,103301.38
2023-05-05T18:56:29.524Z,103299.75
2023-05-05T18:58:57.525Z,103306.81
2023-05-05T19:01:25.892Z,103303.41
2023-05-05T19:03:54.303Z,103307.84
2023-05-05T19:06:22.634Z,103308.72
2023-05-05T19:08:50.834Z,103310.59
2023-05-05T19:11:20.563Z,103312.47
2023-05-05T19:13:48.708Z,103313.41
2023-05-05T19:16:17.148Z,103316.91
2023-05-05T19:18:45.438Z,103317.91
2023-05-05T19:21:13.673Z,103325.03
2023-05-05T19:23:41.991Z,103313.84
2023-05-05T19:26:11.673Z,103316.56
2023-05-05T19:28:41.326Z,103322.72
2023-05-05T19:31:09.559Z,103319.38
2023-05-05T19:33:37.816Z,103322.88
2023-05-05T19:36:06.446Z,103322.06
2023-05-05T19:38:34.604Z,103324.72
2023-05-05T19:41:02.965Z,103329.06
2023-05-05T19:43:31.424Z,103328.25
2023-05-05T19:46:01.889Z,103330.00
2023-05-05T19:48:30.135Z,103328.34
2023-05-05T19:50:58.169Z,103324.09
2023-05-05T19:53:27.058Z,103329.31
2023-05-05T19:55:55.064Z,103321.56
2023-05-05T19:58:23.260Z,103325.09
2023-05-05T20:00:51.181Z,103326.88
2023-05-05T20:03:21.300Z,103332.97
2023-05-05T20:05:49.441Z,103327.81
2023-05-05T20:08:17.491Z,103330.44
2023-05-05T20:10:45.509Z,103327.03
2023-05-05T20:13:13.400Z,103334.81
2023-05-05T20:15:41.632Z,103328.81
2023-05-05T20:18:09.963Z,103329.69
2023-05-05T20:20:39.425Z,103326.28
2023-05-05T20:23:07.557Z,103334.97
2023-05-05T20:25:35.527Z,103342.78
2023-05-05T20:28:03.432Z,103333.31
2023-05-05T20:30:31.802Z,103333.34
2023-05-05T20:32:59.745Z,103335.13
2023-05-05T20:35:27.759Z,103329.94
2023-05-05T20:37:57.004Z,103335.97
2023-05-05T20:40:24.826Z,103333.41
2023-05-05T20:42:52.722Z,103331.72
2023-05-05T20:45:20.596Z,103336.91
2023-05-05T20:47:48.537Z,103336.91
2023-05-05T20:50:17.887Z,103330.84
2023-05-05T20:52:45.998Z,103335.22
2023-05-05T20:55:15.223Z,103330.03
2023-05-05T20:57:43.218Z,103336.09
2023-05-05T21:00:12.026Z,103332.63
2023-05-05T21:02:40.228Z,103333.53
2023-05-05T21:05:08.925Z,103329.19
2023-05-05T21:07:36.967Z,103331.78
2023-05-05T21:10:05.955Z,103329.22
2023-05-05T21:12:35.633Z,103330.94
2023-05-05T21:15:03.810Z,103319.72
2023-05-05T21:17:31.750Z,103319.72
2023-05-05T21:19:59.788Z,103318.00
2023-05-05T21:22:27.934Z,103316.31
2023-05-05T21:24:55.773Z,103324.91
2023-05-05T21:27:25.052Z,103322.31
2023-05-05T21:29:54.316Z,103322.31
2023-05-05T21:32:22.250Z,103325.72
2023-05-05T21:34:50.304Z,103324.91
2023-05-05T21:37:18.208Z,103314.50
2023-05-05T21:39:46.104Z,103325.69
2023-05-05T21:42:14.096Z,103335.19
2023-05-05T21:44:41.908Z,103330.03
2023-05-05T21:47:11.551Z,103331.72
2023-05-05T21:49:39.476Z,103334.31
2023-05-05T21:52:07.403Z,103334.31
2023-05-05T21:54:35.444Z,103327.44
2023-05-05T21:57:03.467Z,103325.66
2023-05-05T21:59:31.324Z,103338.56
2023-05-05T22:01:59.210Z,103336.84
2023-05-05T22:04:28.430Z,103332.53
2023-05-05T22:06:56.590Z,103333.38
2023-05-05T22:09:24.479Z,103335.06
2023-05-05T22:11:52.470Z,103334.13
2023-05-05T22:14:20.373Z,103335.81
2023-05-05T22:16:48.317Z,103334.06
2023-05-05T22:19:16.416Z,103341.81
2023-05-05T22:21:46.020Z,103340.06
2023-05-05T22:24:14.006Z,103345.22
2023-05-05T22:26:43.361Z,103343.47
2023-05-05T22:29:14.390Z,103343.41
2023-05-05T22:31:42.391Z,103345.09
2023-05-05T22:34:10.410Z,103340.75
2023-05-05T22:36:38.278Z,103340.75
2023-05-05T22:39:07.611Z,103341.56
2023-05-05T22:41:35.533Z,103341.50
2023-05-05T22:44:03.504Z,103349.19
2023-05-05T22:46:31.580Z,103342.34
2023-05-05T22:48:59.692Z,103344.84
2023-05-05T22:51:27.889Z,103345.66
2023-05-05T22:53:55.794Z,103344.75
2023-05-05T22:56:25.155Z,103346.44
2023-05-05T22:58:53.020Z,103345.56
2023-05-05T23:01:20.915Z,103348.09
2023-05-05T23:03:48.944Z,103348.94
2023-05-05T23:06:16.962Z,103348.91
2023-05-05T23:08:44.811Z,103345.41
2023-05-05T23:11:12.777Z,103341.13
2023-05-05T23:13:42.040Z,103338.50
2023-05-05T23:16:09.965Z,103342.78
2023-05-05T23:18:38.794Z,103340.22
2023-05-05T23:21:06.726Z,103338.47
2023-05-05T23:23:34.837Z,103336.75
2023-05-05T23:26:02.812Z,103337.59
2023-05-05T23:28:30.987Z,103338.38
2023-05-05T23:31:00.580Z,103334.06
2023-05-05T23:33:28.483Z,103334.81
2023-05-05T23:35:56.368Z,103328.72
2023-05-05T23:38:24.263Z,103344.13
2023-05-05T23:40:52.154Z,103341.47
2023-05-05T23:43:20.182Z,103344.00
2023-05-05T23:45:48.143Z,103346.47
2023-05-05T23:48:17.532Z,103347.38
2023-05-05T23:50:45.490Z,103349.97
2023-05-05T23:53:13.479Z,103348.16
2023-05-05T23:55:41.490Z,103345.56
2023-05-05T23:58:09.432Z,103353.22
